x

Buzzards Bay, Ma (buzm3) Weather Station

9:00pm - Fri 24th Nov 2017 All times are EST. -5 hours from GMT.

  • Wind
    22mph, 25mph gusts
  • Air Temp 50°f
  • Sea Pressure 1014.9mb
  • Buzzards Bay, Ma
  • Buzzards Bay, Ma

More Historic Weather Station data

Upgrade to MSW Pro to gain access to the past 30 days of data for over 8000 Wavebouys and Weather Stations around the globe.

Join

Comparision Forecast

View Surf forecast
   
Fri 11/24 9:00pm 22 25 mph 1014.9mb 50f
8:00pm 18 21 mph 1015.5mb 50f
7:00pm 23 25 mph 1015.5mb 49f
6:00pm 18 20 mph 1015.5mb 48f
5:00pm 16 17 mph 1015.4mb 47f
4:00pm 15 17 mph 1015.3mb 46f
3:00pm 13 15 mph 1015.4mb 46f
2:00pm 11 14 mph 1015.9mb 46f
1:00pm 11 13 mph 1016.5mb 45f
12:00pm 8 9 mph 1016.9mb 44f
11:00am 7 8 mph 1017.5mb 43f
10:00am 7 9 mph 1017.9mb 44f
9:00am 7 8 mph 1017.7mb 44f
8:00am 6 7 mph 1017.9mb 44f
7:00am 8 9 mph 1017.5mb 42f
6:00am 10 11 mph 1016.9mb 42f
5:00am 13 14 mph 1016.7mb 41f
4:00am 10 11 mph 1016.5mb 40f
3:00am 10 11 mph 1016.5mb 40f
2:00am 13 14 mph 1016.5mb 40f
1:00am 11 13 mph 1016.5mb 40f
12:00am 13 14 mph 1016.2mb 40f
Thu 11/23 11:00pm 11 13 mph 1016.4mb 41f
10:00pm 11 14 mph 1016.3mb 41f
9:00pm 14 16 mph 1015.9mb 41f
8:00pm 13 15 mph 1015.8mb 41f
7:00pm 14 16 mph 1015.6mb 41f
6:00pm 13 15 mph 1015.6mb 42f
5:00pm 8 10 mph 1015.9mb 41f
4:00pm 9 10 mph 1015.7mb 41f
3:00pm 8 9 mph 1015.7mb 40f
2:00pm 9 11 mph 1016mb 40f
1:00pm 9 13 mph 1016.6mb 38f
12:00pm 14 16 mph 1017mb 37f
11:00am 11 14 mph 1017.7mb 37f
10:00am 11 14 mph 1017.6mb 36f
9:00am 15 17 mph 1017.7mb 35f
8:00am 20 24 mph 1018mb 34f
7:00am 22 25 mph 1017.2mb 34f
6:00am 22 24 mph 1017.1mb 35f
5:00am 23 25 mph 1016.8mb 36f
4:00am 16 21 mph 1016.3mb 37f
3:00am 24 30 mph 1015.5mb 39f
2:00am 18 21 mph 1015.2mb 40f
1:00am 21 22 mph 1014.9mb 41f
12:00am 22 24 mph 1014.5mb 42f
Wed 11/22 11:00pm 26 29 mph 1014mb 42f
10:00pm 32 37 mph 1012.8mb 42f
9:00pm 30 33 mph 1012.3mb 42f
8:00pm 26 31 mph 1011.7mb 43f
7:00pm 29 36 mph 1010.6mb 46f
6:00pm 29 32 mph 1009.6mb 47f
5:00pm 26 30 mph 1008.7mb 47f
4:00pm 32 36 mph 1007.7mb 48f
3:00pm 2 3 mph 1007.6mb 52f
2:00pm 8 9 mph 1008.2mb 52f
1:00pm 10 11 mph 1009.3mb 53f
12:00pm 9 10 mph 1010.7mb 53f
11:00am 2 2 mph 1012.3mb 54f
10:00am 5 6 mph 1013.5mb 54f
9:00am 8 9 mph 1013.9mb 54f
8:00am 20 31 mph 1013.9mb 55f
7:00am 28 30 mph 1013.1mb 58f
6:00am 16 20 mph 1014.3mb 58f
5:00am 9 11 mph 1016mb 58f
4:00am 8 9 mph 1016.9mb 57f
3:00am 8 9 mph 1016.9mb 57f
12:00am 21 22 mph 1017.9mb 58f
Tue 11/21 11:00pm 25 28 mph 1018mb 58f
10:00pm 31 33 mph 1017.8mb 58f
9:00pm 30 32 mph 1017.9mb 58f
8:00pm 31 33 mph 1017.5mb 58f
7:00pm 29 33 mph 1017.9mb 57f
6:00pm 30 36 mph 1017.8mb 56f
5:00pm 31 37 mph 1017.9mb 56f
4:00pm 34 38 mph 1018.3mb 56f
3:00pm 32 37 mph 1018.2mb 56f
2:00pm 36 40 mph 1017.9mb 55f
1:00pm 34 38 mph 1019mb 55f
12:00pm 32 36 mph 1019.7mb 55f
11:00am 31 36 mph 1020.7mb 55f
10:00am 29 31 mph 1021.4mb 54f
9:00am 25 28 mph 1021.6mb 53f
8:00am 29 31 mph 1021.2mb 53f
7:00am 29 31 mph 1020.7mb 52f
6:00am 29 32 mph 1020.3mb 51f
5:00am 31 34 mph 1020mb 50f